createdAt,value
2023-01-17T00:01:05.880Z,0.90
2023-01-17T00:03:32.771Z,0.80
2023-01-17T00:06:17.860Z,0.80
2023-01-17T00:09:02.609Z,0.98
2023-01-17T00:11:28.969Z,0.57
2023-01-17T00:13:55.267Z,0.68
2023-01-17T00:16:21.597Z,0.65
2023-01-17T00:19:10.924Z,0.90
2023-01-17T00:21:55.710Z,1.02
2023-01-17T00:24:40.387Z,1.58
2023-01-17T00:27:12.391Z,0.80
2023-01-17T00:29:38.659Z,1.10
2023-01-17T00:32:05.018Z,1.30
2023-01-17T00:34:34.110Z,0.80
2023-01-17T00:37:00.423Z,0.88
2023-01-17T00:39:26.746Z,1.00
2023-01-17T00:41:53.127Z,1.00
2023-01-17T00:44:38.375Z,0.98
2023-01-17T00:47:23.382Z,0.70
2023-01-17T00:50:08.168Z,0.85
2023-01-17T00:52:52.939Z,0.80
2023-01-17T00:55:37.587Z,0.70
2023-01-17T00:58:26.020Z,0.60
2023-01-17T01:01:11.045Z,0.32
2023-01-17T01:03:55.913Z,0.38
2023-01-17T01:06:40.594Z,0.30
2023-01-17T01:09:25.195Z,0.40
2023-01-17T01:12:10.136Z,0.20
2023-01-17T01:14:54.963Z,0.22
2023-01-17T01:17:39.715Z,0.20
2023-01-17T01:20:24.380Z,0.20
2023-01-17T01:23:09.357Z,0.73
2023-01-17T01:25:54.418Z,0.22
2023-01-17T01:28:39.243Z,0.40
2023-01-17T01:31:24.538Z,0.40
2023-01-17T01:33:51.643Z,0.30
2023-01-17T01:36:17.946Z,0.40
2023-01-17T01:38:44.283Z,0.20
2023-01-17T01:41:10.581Z,0.45
2023-01-17T01:43:43.388Z,0.40
2023-01-17T01:46:10.871Z,0.30
2023-01-17T01:48:42.391Z,0.40
2023-01-17T01:51:11.139Z,0.40
2023-01-17T01:53:40.237Z,1.08
2023-01-17T01:56:08.241Z,0.60
2023-01-17T01:58:38.798Z,0.52
2023-01-17T02:01:06.966Z,0.32
2023-01-17T02:03:34.108Z,0.30
2023-01-17T02:06:16.179Z,0.25
2023-01-17T02:08:42.618Z,0.20
2023-01-17T02:11:09.342Z,0.30
2023-01-17T02:13:35.882Z,0.35
2023-01-17T02:16:08.296Z,0.20
2023-01-17T02:18:53.587Z,0.38
2023-01-17T02:21:22.471Z,0.30
2023-01-17T02:23:57.941Z,0.20
2023-01-17T02:26:43.379Z,0.52
2023-01-17T02:29:12.854Z,0.52
2023-01-17T02:31:54.198Z,0.40
2023-01-17T02:34:24.928Z,0.63
2023-01-17T02:37:03.523Z,0.60
2023-01-17T02:39:33.021Z,0.60
2023-01-17T02:42:02.929Z,0.40
2023-01-17T02:44:29.222Z,0.52
2023-01-17T02:46:56.434Z,0.50
2023-01-17T02:49:25.810Z,0.80
2023-01-17T02:52:07.478Z,0.73
2023-01-17T02:54:43.046Z,0.80
2023-01-17T02:57:14.314Z,0.70
2023-01-17T02:59:48.788Z,0.80
2023-01-17T03:02:24.943Z,0.60
2023-01-17T03:05:00.674Z,0.57
2023-01-17T03:07:28.194Z,0.57
2023-01-17T03:09:59.191Z,0.70
2023-01-17T03:12:44.031Z,0.80
2023-01-17T03:15:14.345Z,0.80
2023-01-17T03:17:48.395Z,0.90
2023-01-17T03:20:14.829Z,0.77
2023-01-17T03:22:41.256Z,0.82
2023-01-17T03:25:07.734Z,0.70
2023-01-17T03:27:34.054Z,1.40
2023-01-17T03:30:00.364Z,0.90
2023-01-17T03:32:26.694Z,0.90
2023-01-17T03:34:53.226Z,0.60
2023-01-17T03:37:19.565Z,0.70
2023-01-17T03:39:45.863Z,0.70
2023-01-17T03:42:12.244Z,0.70
2023-01-17T03:44:38.573Z,0.70
2023-01-17T03:47:04.876Z,0.43
2023-01-17T03:49:31.405Z,0.70
2023-01-17T03:51:58.195Z,0.50
2023-01-17T03:54:24.527Z,0.63
2023-01-17T03:56:50.809Z,0.70
2023-01-17T03:59:17.317Z,0.70
2023-01-17T04:01:43.754Z,0.60
2023-01-17T04:04:10.220Z,1.05
2023-01-17T04:06:36.574Z,0.70
2023-01-17T04:09:03.029Z,1.33
2023-01-17T04:11:29.792Z,0.82
2023-01-17T04:13:56.074Z,0.88
2023-01-17T04:16:25.274Z,0.80
2023-01-17T04:18:51.676Z,0.60
2023-01-17T04:21:17.950Z,0.80
2023-01-17T04:23:44.221Z,0.60
2023-01-17T04:26:12.030Z,0.95
2023-01-17T04:28:38.623Z,0.90
2023-01-17T04:31:05.148Z,0.60
2023-01-17T04:33:31.532Z,0.70
2023-01-17T04:35:57.880Z,0.60
2023-01-17T04:38:24.287Z,0.40
2023-01-17T04:40:50.995Z,0.50
2023-01-17T04:43:17.803Z,0.60
2023-01-17T04:45:44.129Z,0.60
2023-01-17T04:48:12.657Z,0.80
2023-01-17T04:50:39.359Z,0.73
2023-01-17T04:53:05.666Z,0.60
2023-01-17T04:55:34.943Z,0.80
2023-01-17T04:58:01.433Z,0.88
2023-01-17T05:00:27.830Z,0.95
2023-01-17T05:02:54.199Z,0.85
2023-01-17T05:05:20.622Z,0.90
2023-01-17T05:07:54.112Z,1.10
2023-01-17T05:10:20.841Z,1.33
2023-01-17T05:12:54.383Z,0.90
2023-01-17T05:15:20.737Z,1.20
2023-01-17T05:17:47.004Z,0.70
2023-01-17T05:20:13.362Z,1.20
2023-01-17T05:22:39.650Z,1.17
2023-01-17T05:25:06.322Z,1.25
2023-01-17T05:27:32.687Z,1.35
2023-01-17T05:29:59.014Z,1.00
2023-01-17T05:32:25.394Z,1.05
2023-01-17T05:34:51.822Z,1.50
2023-01-17T05:37:18.142Z,1.23
2023-01-17T05:39:44.790Z,1.13
2023-01-17T05:42:11.128Z,1.33
2023-01-17T05:44:38.490Z,1.20
2023-01-17T05:47:04.846Z,1.58
2023-01-17T05:49:31.218Z,1.67
2023-01-17T05:51:57.989Z,1.92
2023-01-17T05:54:24.429Z,1.90
2023-01-17T05:56:53.189Z,1.65
2023-01-17T05:59:32.227Z,2.10
2023-01-17T06:02:02.712Z,2.20
2023-01-17T06:04:29.411Z,2.50
2023-01-17T06:06:55.899Z,2.95
2023-01-17T06:09:22.240Z,2.15
2023-01-17T06:11:48.564Z,2.60
2023-01-17T06:14:14.940Z,2.03
2023-01-17T06:16:41.354Z,2.45
2023-01-17T06:19:09.494Z,2.70
2023-01-17T06:21:35.784Z,2.58
2023-01-17T06:24:04.054Z,2.33
2023-01-17T06:26:30.782Z,2.47
2023-01-17T06:28:57.173Z,2.30
2023-01-17T06:31:23.749Z,2.42
2023-01-17T06:33:50.180Z,2.50
2023-01-17T06:36:16.480Z,2.65
2023-01-17T06:38:42.783Z,2.65
2023-01-17T06:41:09.698Z,4.03
2023-01-17T06:43:36.027Z,3.72
2023-01-17T06:46:02.429Z,3.08
2023-01-17T06:48:28.914Z,3.28
2023-01-17T06:50:56.955Z,3.20
2023-01-17T06:53:23.312Z,3.92
2023-01-17T06:55:49.755Z,3.10
2023-01-17T06:58:16.417Z,3.85
2023-01-17T07:00:42.811Z,3.90
2023-01-17T07:03:38.465Z,4.03
2023-01-17T07:06:05.511Z,2.83
2023-01-17T07:08:32.091Z,2.95
2023-01-17T07:11:05.865Z,2.97
2023-01-17T07:13:38.334Z,2.80
2023-01-17T07:16:05.327Z,2.80
2023-01-17T07:18:32.204Z,3.13
2023-01-17T07:20:58.647Z,2.90
2023-01-17T07:23:25.084Z,3.30
2023-01-17T07:25:52.459Z,3.20
2023-01-17T07:28:21.910Z,3.05
2023-01-17T07:30:48.527Z,2.85
2023-01-17T07:33:14.970Z,3.05
2023-01-17T07:35:41.402Z,3.08
2023-01-17T07:38:11.753Z,2.67
2023-01-17T07:40:42.062Z,3.00
2023-01-17T07:43:13.642Z,2.90
2023-01-17T07:45:43.224Z,2.65
2023-01-17T07:48:09.767Z,2.80
2023-01-17T07:50:36.349Z,3.20
2023-01-17T07:53:03.218Z,2.92
2023-01-17T07:55:29.548Z,2.78
2023-01-17T07:57:55.831Z,2.75
2023-01-17T08:00:23.173Z,2.40
2023-01-17T08:02:49.587Z,2.72
2023-01-17T08:05:16.176Z,3.00
2023-01-17T08:07:42.552Z,3.35
2023-01-17T08:10:12.900Z,2.60
2023-01-17T08:12:39.355Z,2.38
2023-01-17T08:15:06.274Z,2.30
2023-01-17T08:17:32.779Z,2.67
2023-01-17T08:19:59.165Z,3.00
2023-01-17T08:22:25.552Z,2.30
2023-01-17T08:24:51.874Z,2.50
2023-01-17T08:27:18.234Z,2.60
2023-01-17T08:29:47.243Z,2.75
2023-01-17T08:32:13.810Z,2.08
2023-01-17T08:34:40.163Z,1.92
2023-01-17T08:37:06.539Z,2.00
2023-01-17T08:39:33.148Z,2.75
2023-01-17T08:41:59.524Z,2.55
2023-01-17T08:44:25.982Z,3.28
2023-01-17T08:46:52.304Z,2.78
2023-01-17T08:49:18.662Z,2.35
2023-01-17T08:51:45.079Z,2.95
2023-01-17T08:54:12.945Z,2.67
2023-01-17T08:56:39.314Z,2.85
2023-01-17T08:59:05.682Z,2.60
2023-01-17T09:01:40.824Z,1.90
2023-01-17T09:04:08.252Z,4.05
2023-01-17T09:06:44.971Z,2.70
2023-01-17T09:09:11.741Z,3.03
2023-01-17T09:11:38.234Z,2.75
2023-01-17T09:14:04.594Z,2.50
2023-01-17T09:16:32.008Z,3.00
2023-01-17T09:18:58.920Z,3.85
2023-01-17T09:21:32.529Z,3.42
2023-01-17T09:23:59.828Z,2.72
2023-01-17T09:26:30.913Z,3.80
2023-01-17T09:28:58.621Z,3.42
2023-01-17T09:31:27.351Z,3.50
2023-01-17T09:33:54.971Z,3.95
2023-01-17T09:36:22.159Z,5.57
2023-01-17T09:38:48.523Z,5.75
2023-01-17T09:41:23.845Z,5.40
2023-01-17T09:44:09.045Z,4.68
2023-01-17T09:46:41.108Z,5.00
2023-01-17T09:49:09.812Z,4.95
2023-01-17T09:51:36.545Z,4.68
2023-01-17T09:54:02.914Z,5.90
2023-01-17T09:56:31.671Z,5.85
2023-01-17T09:59:01.433Z,5.57
2023-01-17T10:01:43.785Z,5.47
2023-01-17T10:04:28.981Z,5.60
2023-01-17T10:06:55.285Z,6.45
2023-01-17T10:09:21.600Z,5.60
2023-01-17T10:12:06.705Z,6.97
2023-01-17T10:14:39.115Z,6.40
2023-01-17T10:17:05.362Z,6.20
2023-01-17T10:19:43.926Z,6.28
2023-01-17T10:22:30.983Z,6.10
2023-01-17T10:25:04.071Z,6.65
2023-01-17T10:27:49.391Z,6.25
2023-01-17T10:30:36.643Z,5.80
2023-01-17T10:33:06.193Z,6.32
2023-01-17T10:35:36.308Z,6.35
2023-01-17T10:38:05.868Z,6.80
2023-01-17T10:40:38.452Z,6.32
2023-01-17T10:43:23.382Z,6.07
2023-01-17T10:45:57.127Z,6.95
2023-01-17T10:48:39.492Z,6.95
2023-01-17T10:51:18.094Z,6.50
2023-01-17T10:53:46.863Z,5.93
2023-01-17T10:56:14.168Z,6.63
2023-01-17T10:58:40.668Z,6.15
2023-01-17T11:01:18.140Z,5.80
2023-01-17T11:03:48.772Z,6.07
2023-01-17T11:06:19.691Z,5.85
2023-01-17T11:11:12.253Z,5.07
2023-01-17T11:13:38.697Z,5.63
2023-01-17T11:16:06.186Z,5.47
2023-01-17T11:18:34.682Z,4.95
2023-01-17T11:21:17.858Z,5.57
2023-01-17T11:23:45.306Z,5.22
2023-01-17T11:26:20.615Z,5.03
2023-01-17T11:28:47.010Z,4.80
2023-01-17T11:31:16.391Z,5.07
2023-01-17T11:33:46.770Z,5.40
2023-01-17T11:36:24.708Z,5.03
2023-01-17T11:39:04.509Z,5.03
2023-01-17T11:41:38.277Z,5.22
2023-01-17T11:44:23.627Z,5.05
2023-01-17T11:47:08.258Z,5.00
2023-01-17T11:49:34.804Z,5.78
2023-01-17T11:52:03.767Z,4.53
2023-01-17T11:54:33.562Z,4.55
2023-01-17T11:57:00.792Z,3.85
2023-01-17T11:59:27.041Z,4.03
2023-01-17T12:02:12.947Z,4.30
2023-01-17T12:04:47.725Z,4.10
2023-01-17T12:07:26.236Z,4.00
2023-01-17T12:09:55.510Z,3.65
2023-01-17T12:12:50.282Z,3.95
2023-01-17T12:15:38.202Z,3.30
2023-01-17T12:18:09.074Z,3.90
2023-01-17T12:23:20.031Z,3.22
2023-01-17T12:26:02.207Z,3.35
2023-01-17T12:28:40.465Z,3.05
2023-01-17T12:31:13.335Z,3.45
2023-01-17T12:33:51.948Z,2.70
2023-01-17T12:36:37.131Z,2.42
2023-01-17T12:39:06.501Z,1.88
2023-01-17T12:41:35.580Z,2.22
2023-01-17T12:44:02.162Z,2.47
2023-01-17T12:46:28.608Z,2.25
2023-01-17T12:48:57.786Z,2.15
2023-01-17T12:51:37.266Z,2.22
2023-01-17T12:54:09.703Z,2.13
2023-01-17T12:56:36.063Z,2.03
2023-01-17T12:59:20.586Z,1.90
2023-01-17T13:01:57.675Z,2.00
2023-01-17T13:04:30.028Z,1.90
2023-01-17T13:06:59.751Z,1.83
2023-01-17T13:09:29.665Z,1.85
2023-01-17T13:12:04.507Z,1.90
2023-01-17T13:14:32.194Z,1.67
2023-01-17T13:16:59.508Z,2.00
2023-01-17T13:19:44.291Z,1.75
2023-01-17T13:22:17.285Z,1.83
2023-01-17T13:24:56.090Z,2.05
2023-01-17T13:27:42.662Z,1.58
2023-01-17T13:30:08.930Z,1.77
2023-01-17T13:32:41.458Z,1.70
2023-01-17T13:35:14.514Z,1.48
2023-01-17T13:38:02.668Z,1.80
2023-01-17T13:40:36.890Z,1.77
2023-01-17T13:43:05.321Z,1.83
2023-01-17T13:45:35.725Z,2.60
2023-01-17T13:48:14.660Z,2.20
2023-01-17T13:50:41.130Z,1.60
2023-01-17T13:53:26.353Z,1.77
2023-01-17T13:55:58.961Z,1.80
2023-01-17T13:58:29.352Z,1.88
2023-01-17T14:00:55.937Z,1.85
2023-01-17T14:03:41.030Z,1.50
2023-01-17T14:06:27.406Z,1.52
2023-01-17T14:08:53.831Z,1.80
2023-01-17T14:11:20.256Z,1.85
2023-01-17T14:13:46.592Z,2.08
2023-01-17T14:16:21.821Z,1.30
2023-01-17T14:18:48.472Z,1.48
2023-01-17T14:21:33.377Z,1.50
2023-01-17T14:24:04.099Z,1.40
2023-01-17T14:26:32.637Z,1.75
2023-01-17T14:29:18.911Z,1.80
2023-01-17T14:31:45.530Z,1.40
2023-01-17T14:34:21.402Z,1.40
2023-01-17T14:36:48.398Z,1.50
2023-01-17T14:39:23.732Z,1.85
2023-01-17T14:41:50.446Z,1.50
2023-01-17T14:44:17.022Z,1.45
2023-01-17T14:46:46.880Z,1.30
2023-01-17T14:49:25.446Z,2.00
2023-01-17T14:52:02.675Z,1.40
2023-01-17T14:54:29.283Z,1.88
2023-01-17T14:57:21.404Z,1.40
2023-01-17T14:59:47.747Z,1.42
2023-01-17T15:02:15.821Z,1.30
2023-01-17T15:04:42.662Z,1.67
2023-01-17T15:07:14.493Z,1.63
2023-01-17T15:09:42.064Z,1.80
2023-01-17T15:12:10.457Z,2.05
2023-01-17T15:14:39.897Z,3.13
2023-01-17T15:17:24.810Z,2.03
2023-01-17T15:19:53.935Z,1.90
2023-01-17T15:22:20.455Z,4.57
2023-01-17T15:24:47.782Z,2.75
2023-01-17T15:27:15.099Z,1.83
2023-01-17T15:29:41.731Z,2.17
2023-01-17T15:32:16.840Z,1.98
2023-01-17T15:34:44.274Z,2.50
2023-01-17T15:37:29.789Z,2.55
2023-01-17T15:40:04.270Z,2.20
2023-01-17T15:42:34.136Z,2.40
2023-01-17T15:45:02.034Z,1.77
2023-01-17T15:47:32.823Z,2.22
2023-01-17T15:50:00.218Z,1.98
2023-01-17T15:52:26.719Z,1.95
2023-01-17T15:55:10.755Z,2.15
2023-01-17T15:57:40.569Z,1.63
2023-01-17T16:10:36.375Z,1.70
2023-01-17T16:13:03.728Z,1.88
2023-01-17T16:15:32.483Z,1.85
2023-01-17T16:21:31.216Z,1.70
2023-01-17T16:24:00.852Z,2.25
2023-01-17T16:26:29.739Z,1.95
2023-01-17T16:28:57.290Z,1.92
2023-01-17T16:31:40.024Z,1.88
2023-01-17T16:37:34.486Z,1.80
2023-01-17T16:40:08.331Z,2.10
2023-01-17T16:42:57.824Z,2.10
2023-01-17T16:45:24.873Z,2.15
2023-01-17T16:47:52.337Z,2.20
2023-01-17T16:53:48.089Z,2.30
2023-01-17T16:56:15.509Z,2.65
2023-01-17T16:58:41.964Z,2.75
2023-01-17T17:01:09.523Z,2.45
2023-01-17T17:03:35.933Z,2.40
2023-01-17T17:09:22.387Z,2.80
2023-01-17T17:22:35.428Z,3.10
2023-01-17T17:25:02.208Z,4.43
2023-01-17T17:27:28.571Z,3.78
2023-01-17T17:29:55.083Z,4.45
2023-01-17T17:32:21.605Z,4.22
2023-01-17T17:34:48.112Z,3.80
2023-01-17T17:37:17.356Z,3.50
2023-01-17T17:39:44.694Z,3.70
2023-01-17T17:42:11.540Z,4.18
2023-01-17T17:44:37.908Z,3.63
2023-01-17T17:47:04.457Z,3.55
2023-01-17T17:49:31.117Z,3.42
2023-01-17T17:52:03.428Z,2.70
2023-01-17T17:54:29.849Z,2.95
2023-01-17T17:56:56.178Z,2.58
2023-01-17T17:59:23.866Z,2.50
2023-01-17T18:01:53.087Z,3.00
2023-01-17T18:04:19.511Z,3.78
2023-01-17T18:06:46.038Z,3.17
2023-01-17T18:09:12.996Z,3.28
2023-01-17T18:11:40.845Z,3.70
2023-01-17T18:14:09.493Z,4.18
2023-01-17T18:16:41.897Z,3.67
2023-01-17T18:19:11.727Z,6.18
2023-01-17T18:21:38.436Z,10.52
2023-01-17T18:24:06.523Z,11.95
2023-01-17T18:26:34.249Z,12.73
2023-01-17T18:29:01.306Z,7.07
2023-01-17T18:31:57.366Z,7.28
2023-01-17T18:34:27.981Z,6.35
2023-01-17T18:36:54.709Z,7.65
2023-01-17T18:39:23.731Z,6.68
2023-01-17T18:41:50.310Z,6.60
2023-01-17T18:44:21.652Z,6.10
2023-01-17T18:46:48.584Z,5.80
2023-01-17T18:49:19.237Z,4.78
2023-01-17T18:51:49.016Z,6.30
2023-01-17T18:54:15.734Z,4.50
2023-01-17T18:56:45.074Z,4.43
2023-01-17T18:59:12.352Z,4.13
2023-01-17T19:01:38.879Z,4.20
2023-01-17T19:04:08.023Z,3.95
2023-01-17T19:06:35.985Z,3.78
2023-01-17T19:09:10.959Z,4.30
2023-01-17T19:11:37.520Z,4.50
2023-01-17T19:14:04.678Z,4.22
2023-01-17T19:16:32.198Z,4.35
2023-01-17T19:19:01.785Z,4.32
2023-01-17T19:21:28.814Z,5.50
2023-01-17T20:43:17.567Z,5.65
2023-01-17T20:45:43.904Z,5.90
2023-01-17T20:48:10.262Z,4.97
2023-01-17T20:50:36.880Z,5.78
2023-01-17T20:53:03.254Z,5.97
2023-01-17T20:55:29.845Z,6.75
2023-01-17T20:57:57.460Z,5.93
2023-01-17T21:00:23.957Z,5.95
2023-01-17T21:02:50.449Z,6.63
2023-01-17T21:05:16.750Z,7.07
2023-01-17T21:07:43.058Z,8.00
2023-01-17T21:10:09.732Z,6.63
2023-01-17T21:12:36.178Z,6.82
2023-01-17T21:15:02.560Z,7.43
2023-01-17T21:17:29.000Z,9.05
2023-01-17T21:19:55.370Z,8.93
2023-01-17T21:22:21.657Z,6.63
2023-01-17T21:24:48.451Z,6.78
2023-01-17T21:27:17.069Z,6.88
2023-01-17T21:29:43.410Z,7.20
2023-01-17T21:37:01.315Z,7.53
2023-01-17T21:42:52.737Z,5.78
2023-01-17T21:45:19.342Z,5.68
2023-01-17T21:47:45.714Z,5.63
2023-01-17T21:50:22.215Z,6.32
2023-01-17T21:52:54.870Z,6.65
2023-01-17T21:55:39.793Z,6.20
2023-01-17T21:58:30.908Z,6.88
2023-01-17T22:03:39.794Z,7.15
2023-01-17T22:06:06.396Z,7.85
2023-01-17T22:08:33.948Z,6.85
2023-01-17T22:11:04.338Z,5.65
2023-01-17T22:13:32.303Z,6.72
2023-01-17T22:15:59.606Z,5.70
2023-01-17T22:18:26.362Z,6.30
2023-01-17T22:20:52.751Z,6.50
2023-01-17T22:23:19.203Z,6.30
2023-01-17T22:25:45.789Z,6.38
2023-01-17T22:28:12.269Z,5.90
2023-01-17T22:30:38.716Z,5.88
2023-01-17T22:33:05.085Z,6.38
2023-01-17T22:35:31.560Z,6.65
2023-01-17T22:37:58.087Z,6.35
2023-01-17T22:40:26.226Z,6.03
2023-01-17T22:42:52.563Z,5.82
2023-01-17T22:45:21.908Z,5.90
2023-01-17T22:47:48.236Z,6.55
2023-01-17T22:50:14.833Z,5.88
2023-01-17T22:52:41.972Z,6.00
2023-01-17T22:55:08.701Z,7.03
2023-01-17T22:57:35.747Z,6.50
2023-01-17T23:00:02.347Z,7.72
2023-01-17T23:02:28.742Z,7.53
2023-01-17T23:04:55.220Z,7.25
2023-01-17T23:07:26.431Z,8.10
2023-01-17T23:09:53.458Z,7.03
2023-01-17T23:12:19.835Z,5.88
2023-01-17T23:15:05.011Z,6.68
2023-01-17T23:17:49.917Z,6.03
2023-01-17T23:20:16.455Z,6.57
2023-01-17T23:22:42.922Z,6.65
2023-01-17T23:25:10.978Z,6.20
2023-01-17T23:28:05.325Z,6.78
2023-01-17T23:30:34.669Z,6.65
2023-01-17T23:33:02.127Z,6.07
2023-01-17T23:35:30.109Z,6.60
2023-01-17T23:38:15.201Z,6.68
2023-01-17T23:40:42.511Z,5.88
2023-01-17T23:43:24.881Z,6.60
2023-01-17T23:45:52.472Z,6.15
2023-01-17T23:48:19.304Z,6.18
2023-01-17T23:50:47.612Z,6.40
2023-01-17T23:53:22.333Z,5.88
2023-01-17T23:55:51.025Z,6.28
2023-01-17T23:58:17.741Z,6.60
